sensor_id;sensor_type;location;lat;lon;timestamp;temperature;humidity
39657;DHT22;25337;51.478;7.510;2024-01-30T00:01:26;8.30;99.90
39657;DHT22;25337;51.478;7.510;2024-01-30T00:03:52;8.30;99.90
39657;DHT22;25337;51.478;7.510;2024-01-30T00:06:21;8.30;99.90
39657;DHT22;25337;51.478;7.510;2024-01-30T00:08:46;8.30;99.90
39657;DHT22;25337;51.478;7.510;2024-01-30T00:11:14;8.30;99.90
39657;DHT22;25337;51.478;7.510;2024-01-30T00:13:40;8.30;99.90
39657;DHT22;25337;51.478;7.510;2024-01-30T00:16:06;8.30;99.90
39657;DHT22;25337;51.478;7.510;2024-01-30T00:18:32;8.30;99.90
39657;DHT22;25337;51.478;7.510;2024-01-30T00:20:59;8.20;99.90
39657;DHT22;25337;51.478;7.510;2024-01-30T00:23:25;8.20;99.90
39657;DHT22;25337;51.478;7.510;2024-01-30T00:25:51;8.20;99.90
39657;DHT22;25337;51.478;7.510;2024-01-30T00:28:16;8.20;99.90
39657;DHT22;25337;51.478;7.510;2024-01-30T00:30:42;8.20;99.90
39657;DHT22;25337;51.478;7.510;2024-01-30T00:33:09;8.10;99.90
39657;DHT22;25337;51.478;7.510;2024-01-30T00:35:34;8.20;99.90
39657;DHT22;25337;51.478;7.510;2024-01-30T00:38:00;8.10;99.90
39657;DHT22;25337;51.478;7.510;2024-01-30T00:40:26;7.90;99.90
39657;DHT22;25337;51.478;7.510;2024-01-30T00:42:51;8.10;99.90
39657;DHT22;25337;51.478;7.510;2024-01-30T00:45:17;8.00;99.90
39657;DHT22;25337;51.478;7.510;2024-01-30T00:47:44;8.10;99.90
39657;DHT22;25337;51.478;7.510;2024-01-30T00:50:10;8.10;99.90
39657;DHT22;25337;51.478;7.510;2024-01-30T00:52:36;8.10;99.90
39657;DHT22;25337;51.478;7.510;2024-01-30T00:55:02;8.00;99.90
39657;DHT22;25337;51.478;7.510;2024-01-30T00:57:28;8.00;99.90
39657;DHT22;25337;51.478;7.510;2024-01-30T00:59:54;7.90;99.90
39657;DHT22;25337;51.478;7.510;2024-01-30T01:02:20;7.90;99.90
39657;DHT22;25337;51.478;7.510;2024-01-30T01:04:45;8.00;99.90
39657;DHT22;25337;51.478;7.510;2024-01-30T01:07:11;7.90;99.90
39657;DHT22;25337;51.478;7.510;2024-01-30T01:09:37;7.90;99.90
39657;DHT22;25337;51.478;7.510;2024-01-30T01:12:03;7.90;99.90
39657;DHT22;25337;51.478;7.510;2024-01-30T01:14:29;7.90;99.90
39657;DHT22;25337;51.478;7.510;2024-01-30T01:16:55;7.90;99.90
39657;DHT22;25337;51.478;7.510;2024-01-30T01:19:20;7.90;99.90
39657;DHT22;25337;51.478;7.510;2024-01-30T01:21:46;7.90;99.90
39657;DHT22;25337;51.478;7.510;2024-01-30T01:24:12;8.00;99.90
39657;DHT22;25337;51.478;7.510;2024-01-30T01:26:38;8.00;99.90
39657;DHT22;25337;51.478;7.510;2024-01-30T01:29:03;8.00;99.90
39657;DHT22;25337;51.478;7.510;2024-01-30T01:31:36;8.00;99.90
39657;DHT22;25337;51.478;7.510;2024-01-30T01:34:05;8.00;99.90
39657;DHT22;25337;51.478;7.510;2024-01-30T01:36:31;8.00;99.90
39657;DHT22;25337;51.478;7.510;2024-01-30T01:38:57;8.00;99.90
39657;DHT22;25337;51.478;7.510;2024-01-30T01:41:22;7.90;99.90
39657;DHT22;25337;51.478;7.510;2024-01-30T01:43:48;7.90;99.90
39657;DHT22;25337;51.478;7.510;2024-01-30T01:46:14;8.00;99.90
39657;DHT22;25337;51.478;7.510;2024-01-30T01:48:39;8.00;99.90
39657;DHT22;25337;51.478;7.510;2024-01-30T01:51:06;8.00;99.90
39657;DHT22;25337;51.478;7.510;2024-01-30T01:53:32;8.00;99.90
39657;DHT22;25337;51.478;7.510;2024-01-30T01:55:58;8.00;99.90
39657;DHT22;25337;51.478;7.510;2024-01-30T01:58:27;7.90;99.90
39657;DHT22;25337;51.478;7.510;2024-01-30T02:00:54;7.80;99.90
39657;DHT22;25337;51.478;7.510;2024-01-30T02:03:21;7.90;99.90
39657;DHT22;25337;51.478;7.510;2024-01-30T02:05:47;7.90;99.90
39657;DHT22;25337;51.478;7.510;2024-01-30T02:08:13;8.00;99.90
39657;DHT22;25337;51.478;7.510;2024-01-30T02:10:39;8.00;99.90
39657;DHT22;25337;51.478;7.510;2024-01-30T02:13:04;8.00;99.90
39657;DHT22;25337;51.478;7.510;2024-01-30T02:15:30;8.00;99.90
39657;DHT22;25337;51.478;7.510;2024-01-30T02:17:56;8.00;99.90
39657;DHT22;25337;51.478;7.510;2024-01-30T02:20:23;7.90;99.90
39657;DHT22;25337;51.478;7.510;2024-01-30T02:22:52;7.90;99.90
39657;DHT22;25337;51.478;7.510;2024-01-30T02:25:18;8.00;99.90
39657;DHT22;25337;51.478;7.510;2024-01-30T02:27:43;8.00;99.90
39657;DHT22;25337;51.478;7.510;2024-01-30T02:30:09;7.90;99.90
39657;DHT22;25337;51.478;7.510;2024-01-30T02:32:35;7.90;99.90
39657;DHT22;25337;51.478;7.510;2024-01-30T02:35:01;7.90;99.90
39657;DHT22;25337;51.478;7.510;2024-01-30T02:37:26;7.90;99.90
39657;DHT22;25337;51.478;7.510;2024-01-30T02:39:52;8.00;99.90
39657;DHT22;25337;51.478;7.510;2024-01-30T02:42:18;8.00;99.90
39657;DHT22;25337;51.478;7.510;2024-01-30T02:44:43;7.90;99.90
39657;DHT22;25337;51.478;7.510;2024-01-30T02:47:09;7.90;99.90
39657;DHT22;25337;51.478;7.510;2024-01-30T02:49:35;7.90;99.90
39657;DHT22;25337;51.478;7.510;2024-01-30T02:52:00;7.80;99.90
39657;DHT22;25337;51.478;7.510;2024-01-30T02:54:26;7.90;99.90
39657;DHT22;25337;51.478;7.510;2024-01-30T02:56:52;7.80;99.90
39657;DHT22;25337;51.478;7.510;2024-01-30T02:59:18;7.80;99.90
39657;DHT22;25337;51.478;7.510;2024-01-30T03:01:44;7.80;99.90
39657;DHT22;25337;51.478;7.510;2024-01-30T03:04:10;7.80;99.90
39657;DHT22;25337;51.478;7.510;2024-01-30T03:06:36;7.80;99.90
39657;DHT22;25337;51.478;7.510;2024-01-30T03:09:02;7.80;99.90
39657;DHT22;25337;51.478;7.510;2024-01-30T03:11:28;7.90;99.90
39657;DHT22;25337;51.478;7.510;2024-01-30T03:13:54;7.90;99.90
39657;DHT22;25337;51.478;7.510;2024-01-30T03:16:19;7.90;99.90
39657;DHT22;25337;51.478;7.510;2024-01-30T03:18:45;7.90;99.90
39657;DHT22;25337;51.478;7.510;2024-01-30T03:21:10;7.90;99.90
39657;DHT22;25337;51.478;7.510;2024-01-30T03:23:36;7.90;99.90
39657;DHT22;25337;51.478;7.510;2024-01-30T03:26:02;7.90;99.90
39657;DHT22;25337;51.478;7.510;2024-01-30T03:28:29;7.90;99.90
39657;DHT22;25337;51.478;7.510;2024-01-30T03:30:55;7.90;99.90
39657;DHT22;25337;51.478;7.510;2024-01-30T03:33:20;7.90;99.90
39657;DHT22;25337;51.478;7.510;2024-01-30T03:35:46;7.90;99.90
39657;DHT22;25337;51.478;7.510;2024-01-30T03:38:12;7.90;99.90
39657;DHT22;25337;51.478;7.510;2024-01-30T03:40:37;7.90;99.90
39657;DHT22;25337;51.478;7.510;2024-01-30T03:43:03;7.90;99.90
39657;DHT22;25337;51.478;7.510;2024-01-30T03:45:30;7.90;99.90
39657;DHT22;25337;51.478;7.510;2024-01-30T03:47:56;7.90;99.90
39657;DHT22;25337;51.478;7.510;2024-01-30T03:50:21;7.80;99.90
39657;DHT22;25337;51.478;7.510;2024-01-30T03:52:47;7.80;99.90
39657;DHT22;25337;51.478;7.510;2024-01-30T03:55:12;7.90;99.90
39657;DHT22;25337;51.478;7.510;2024-01-30T03:57:38;7.90;99.90
39657;DHT22;25337;51.478;7.510;2024-01-30T04:00:04;7.90;99.90
39657;DHT22;25337;51.478;7.510;2024-01-30T04:02:30;7.90;99.90
39657;DHT22;25337;51.478;7.510;2024-01-30T04:04:56;7.90;99.90
39657;DHT22;25337;51.478;7.510;2024-01-30T04:07:21;7.80;99.90
39657;DHT22;25337;51.478;7.510;2024-01-30T04:09:47;7.80;99.90
39657;DHT22;25337;51.478;7.510;2024-01-30T04:12:12;7.80;99.90
39657;DHT22;25337;51.478;7.510;2024-01-30T04:14:40;7.80;99.90
39657;DHT22;25337;51.478;7.510;2024-01-30T04:17:05;7.80;99.90
39657;DHT22;25337;51.478;7.510;2024-01-30T04:19:31;7.80;99.90
39657;DHT22;25337;51.478;7.510;2024-01-30T04:21:57;7.70;99.90
39657;DHT22;25337;51.478;7.510;2024-01-30T04:24:22;7.70;99.90
39657;DHT22;25337;51.478;7.510;2024-01-30T04:26:48;7.70;99.90
39657;DHT22;25337;51.478;7.510;2024-01-30T04:29:13;7.70;99.90
39657;DHT22;25337;51.478;7.510;2024-01-30T04:31:39;7.80;99.90
39657;DHT22;25337;51.478;7.510;2024-01-30T04:34:05;7.70;99.90
39657;DHT22;25337;51.478;7.510;2024-01-30T04:36:30;7.70;99.90
39657;DHT22;25337;51.478;7.510;2024-01-30T04:38:56;7.70;99.90
39657;DHT22;25337;51.478;7.510;2024-01-30T04:41:21;7.80;99.90
39657;DHT22;25337;51.478;7.510;2024-01-30T04:43:47;7.80;99.90
39657;DHT22;25337;51.478;7.510;2024-01-30T04:46:12;7.80;99.90
39657;DHT22;25337;51.478;7.510;2024-01-30T04:48:38;7.80;99.90
39657;DHT22;25337;51.478;7.510;2024-01-30T04:51:04;7.80;99.90
39657;DHT22;25337;51.478;7.510;2024-01-30T04:53:30;7.70;99.90
39657;DHT22;25337;51.478;7.510;2024-01-30T04:55:56;7.70;99.90
39657;DHT22;25337;51.478;7.510;2024-01-30T04:58:22;7.60;99.90
39657;DHT22;25337;51.478;7.510;2024-01-30T05:00:47;7.70;99.90
39657;DHT22;25337;51.478;7.510;2024-01-30T05:03:17;7.80;99.90
39657;DHT22;25337;51.478;7.510;2024-01-30T05:05:43;7.70;99.90
39657;DHT22;25337;51.478;7.510;2024-01-30T05:08:08;7.70;99.90
39657;DHT22;25337;51.478;7.510;2024-01-30T05:10:34;7.70;99.90
39657;DHT22;25337;51.478;7.510;2024-01-30T05:13:00;7.80;99.90
39657;DHT22;25337;51.478;7.510;2024-01-30T05:15:25;7.80;99.90
39657;DHT22;25337;51.478;7.510;2024-01-30T05:17:51;7.80;99.90
39657;DHT22;25337;51.478;7.510;2024-01-30T05:20:17;7.90;99.90
39657;DHT22;25337;51.478;7.510;2024-01-30T05:22:43;7.90;99.90
39657;DHT22;25337;51.478;7.510;2024-01-30T05:25:11;7.90;99.90
39657;DHT22;25337;51.478;7.510;2024-01-30T05:27:37;7.80;99.90
39657;DHT22;25337;51.478;7.510;2024-01-30T05:30:03;7.80;99.90
39657;DHT22;25337;51.478;7.510;2024-01-30T05:32:29;7.80;99.90
39657;DHT22;25337;51.478;7.510;2024-01-30T05:34:54;7.90;99.90
39657;DHT22;25337;51.478;7.510;2024-01-30T05:37:20;7.80;99.90
39657;DHT22;25337;51.478;7.510;2024-01-30T05:39:46;7.80;99.90
39657;DHT22;25337;51.478;7.510;2024-01-30T05:42:11;7.80;99.90
39657;DHT22;25337;51.478;7.510;2024-01-30T05:44:37;7.90;99.90
39657;DHT22;25337;51.478;7.510;2024-01-30T05:47:03;7.80;99.90
39657;DHT22;25337;51.478;7.510;2024-01-30T05:49:28;7.80;99.90
39657;DHT22;25337;51.478;7.510;2024-01-30T05:51:54;7.90;99.90
39657;DHT22;25337;51.478;7.510;2024-01-30T05:54:19;7.90;99.90
39657;DHT22;25337;51.478;7.510;2024-01-30T05:56:45;7.80;99.90
39657;DHT22;25337;51.478;7.510;2024-01-30T05:59:11;7.90;99.90
39657;DHT22;25337;51.478;7.510;2024-01-30T06:01:36;7.90;99.90
39657;DHT22;25337;51.478;7.510;2024-01-30T06:04:02;7.90;99.90
39657;DHT22;25337;51.478;7.510;2024-01-30T06:06:28;7.90;99.90
39657;DHT22;25337;51.478;7.510;2024-01-30T06:08:53;7.90;99.90
39657;DHT22;25337;51.478;7.510;2024-01-30T06:11:21;7.90;99.90
39657;DHT22;25337;51.478;7.510;2024-01-30T06:13:47;7.80;99.90
39657;DHT22;25337;51.478;7.510;2024-01-30T06:16:12;7.70;99.90
39657;DHT22;25337;51.478;7.510;2024-01-30T06:18:38;7.60;99.90
39657;DHT22;25337;51.478;7.510;2024-01-30T06:21:04;7.60;99.90
39657;DHT22;25337;51.478;7.510;2024-01-30T06:23:30;7.60;99.90
39657;DHT22;25337;51.478;7.510;2024-01-30T06:25:56;7.50;99.90
39657;DHT22;25337;51.478;7.510;2024-01-30T06:28:21;7.50;99.90
39657;DHT22;25337;51.478;7.510;2024-01-30T06:30:47;7.60;99.90
39657;DHT22;25337;51.478;7.510;2024-01-30T06:33:13;7.70;99.90
39657;DHT22;25337;51.478;7.510;2024-01-30T06:35:40;7.80;99.90
39657;DHT22;25337;51.478;7.510;2024-01-30T06:38:06;7.70;99.90
39657;DHT22;25337;51.478;7.510;2024-01-30T06:40:31;7.80;99.90
39657;DHT22;25337;51.478;7.510;2024-01-30T06:42:57;7.80;99.90
39657;DHT22;25337;51.478;7.510;2024-01-30T06:45:23;7.80;99.90
39657;DHT22;25337;51.478;7.510;2024-01-30T06:47:48;7.80;99.90
39657;DHT22;25337;51.478;7.510;2024-01-30T06:50:14;7.80;99.90
39657;DHT22;25337;51.478;7.510;2024-01-30T06:52:39;7.80;99.90
39657;DHT22;25337;51.478;7.510;2024-01-30T06:55:05;7.80;99.90
39657;DHT22;25337;51.478;7.510;2024-01-30T06:57:31;7.90;99.90
39657;DHT22;25337;51.478;7.510;2024-01-30T06:59:57;7.80;99.90
39657;DHT22;25337;51.478;7.510;2024-01-30T07:02:23;7.90;99.90
39657;DHT22;25337;51.478;7.510;2024-01-30T07:04:48;7.90;99.90
39657;DHT22;25337;51.478;7.510;2024-01-30T07:07:14;8.00;99.90
39657;DHT22;25337;51.478;7.510;2024-01-30T07:09:41;8.00;99.90
39657;DHT22;25337;51.478;7.510;2024-01-30T07:12:06;8.00;99.90
39657;DHT22;25337;51.478;7.510;2024-01-30T07:14:32;8.00;99.90
39657;DHT22;25337;51.478;7.510;2024-01-30T07:16:58;8.00;99.90
39657;DHT22;25337;51.478;7.510;2024-01-30T07:19:24;8.00;99.90
39657;DHT22;25337;51.478;7.510;2024-01-30T07:21:49;8.00;99.90
39657;DHT22;25337;51.478;7.510;2024-01-30T07:24:15;8.00;99.90
39657;DHT22;25337;51.478;7.510;2024-01-30T07:26:40;8.10;99.90
39657;DHT22;25337;51.478;7.510;2024-01-30T07:29:06;8.20;99.90
39657;DHT22;25337;51.478;7.510;2024-01-30T07:31:32;8.20;99.90
39657;DHT22;25337;51.478;7.510;2024-01-30T07:33:57;8.30;99.90
39657;DHT22;25337;51.478;7.510;2024-01-30T07:36:23;8.30;99.90
39657;DHT22;25337;51.478;7.510;2024-01-30T07:38:48;8.30;99.90
39657;DHT22;25337;51.478;7.510;2024-01-30T07:41:14;8.40;99.90
39657;DHT22;25337;51.478;7.510;2024-01-30T07:43:40;8.50;99.90
39657;DHT22;25337;51.478;7.510;2024-01-30T07:46:05;8.40;99.90
39657;DHT22;25337;51.478;7.510;2024-01-30T07:48:33;8.50;99.90
39657;DHT22;25337;51.478;7.510;2024-01-30T07:50:59;8.40;99.90
39657;DHT22;25337;51.478;7.510;2024-01-30T07:53:25;8.40;99.90
39657;DHT22;25337;51.478;7.510;2024-01-30T07:55:51;8.40;99.90
39657;DHT22;25337;51.478;7.510;2024-01-30T07:58:17;8.40;99.90
39657;DHT22;25337;51.478;7.510;2024-01-30T08:00:42;8.60;99.90
39657;DHT22;25337;51.478;7.510;2024-01-30T08:03:08;8.50;99.90
39657;DHT22;25337;51.478;7.510;2024-01-30T08:05:34;8.50;99.90
39657;DHT22;25337;51.478;7.510;2024-01-30T08:07:59;8.60;99.90
39657;DHT22;25337;51.478;7.510;2024-01-30T08:10:25;8.60;99.90
39657;DHT22;25337;51.478;7.510;2024-01-30T08:12:50;8.60;99.90
39657;DHT22;25337;51.478;7.510;2024-01-30T08:15:16;8.60;99.90
39657;DHT22;25337;51.478;7.510;2024-01-30T08:17:42;8.70;99.90
39657;DHT22;25337;51.478;7.510;2024-01-30T08:20:08;8.80;99.90
39657;DHT22;25337;51.478;7.510;2024-01-30T08:22:38;8.90;99.90
39657;DHT22;25337;51.478;7.510;2024-01-30T08:25:05;9.10;99.90
39657;DHT22;25337;51.478;7.510;2024-01-30T08:27:31;9.20;99.90
39657;DHT22;25337;51.478;7.510;2024-01-30T08:29:56;9.30;99.90
39657;DHT22;25337;51.478;7.510;2024-01-30T08:32:22;9.30;99.90
39657;DHT22;25337;51.478;7.510;2024-01-30T08:34:49;9.40;99.90
39657;DHT22;25337;51.478;7.510;2024-01-30T08:37:15;9.50;99.90
39657;DHT22;25337;51.478;7.510;2024-01-30T08:39:42;9.40;99.90
39657;DHT22;25337;51.478;7.510;2024-01-30T08:42:08;9.50;99.90
39657;DHT22;25337;51.478;7.510;2024-01-30T08:44:34;9.50;99.90
39657;DHT22;25337;51.478;7.510;2024-01-30T08:46:59;9.60;99.90
39657;DHT22;25337;51.478;7.510;2024-01-30T08:49:25;9.60;99.90
39657;DHT22;25337;51.478;7.510;2024-01-30T08:51:50;9.60;99.90
39657;DHT22;25337;51.478;7.510;2024-01-30T08:54:16;9.60;99.90
39657;DHT22;25337;51.478;7.510;2024-01-30T08:56:42;9.80;99.90
39657;DHT22;25337;51.478;7.510;2024-01-30T08:59:08;9.70;99.90
39657;DHT22;25337;51.478;7.510;2024-01-30T09:01:34;9.60;99.90
39657;DHT22;25337;51.478;7.510;2024-01-30T09:03:59;9.70;99.90
39657;DHT22;25337;51.478;7.510;2024-01-30T09:06:25;9.80;99.90
39657;DHT22;25337;51.478;7.510;2024-01-30T09:08:53;9.80;99.90
39657;DHT22;25337;51.478;7.510;2024-01-30T09:11:19;9.90;99.90
39657;DHT22;25337;51.478;7.510;2024-01-30T09:13:44;9.90;99.90
39657;DHT22;25337;51.478;7.510;2024-01-30T09:16:10;10.00;99.90
39657;DHT22;25337;51.478;7.510;2024-01-30T09:18:36;10.10;99.90
39657;DHT22;25337;51.478;7.510;2024-01-30T09:21:01;10.20;99.90
39657;DHT22;25337;51.478;7.510;2024-01-30T09:23:27;10.30;99.90
39657;DHT22;25337;51.478;7.510;2024-01-30T09:25:53;10.40;99.90
39657;DHT22;25337;51.478;7.510;2024-01-30T09:28:19;10.50;99.90
39657;DHT22;25337;51.478;7.510;2024-01-30T09:30:45;10.60;99.90
39657;DHT22;25337;51.478;7.510;2024-01-30T09:33:10;10.70;99.90
39657;DHT22;25337;51.478;7.510;2024-01-30T09:35:36;10.70;99.90
39657;DHT22;25337;51.478;7.510;2024-01-30T09:38:02;10.80;99.90
39657;DHT22;25337;51.478;7.510;2024-01-30T09:40:28;10.90;99.90
39657;DHT22;25337;51.478;7.510;2024-01-30T09:42:54;10.90;99.90
39657;DHT22;25337;51.478;7.510;2024-01-30T09:45:23;11.10;99.90
39657;DHT22;25337;51.478;7.510;2024-01-30T09:47:49;11.10;99.90
39657;DHT22;25337;51.478;7.510;2024-01-30T09:50:15;11.20;99.90
39657;DHT22;25337;51.478;7.510;2024-01-30T09:52:42;11.30;99.90
39657;DHT22;25337;51.478;7.510;2024-01-30T09:55:09;11.40;99.90
39657;DHT22;25337;51.478;7.510;2024-01-30T09:57:35;11.50;99.90
39657;DHT22;25337;51.478;7.510;2024-01-30T10:00:01;11.60;99.90
39657;DHT22;25337;51.478;7.510;2024-01-30T10:02:27;11.60;99.90
39657;DHT22;25337;51.478;7.510;2024-01-30T10:04:52;11.60;99.90
39657;DHT22;25337;51.478;7.510;2024-01-30T10:07:18;11.60;99.90
39657;DHT22;25337;51.478;7.510;2024-01-30T10:09:45;11.50;99.90
39657;DHT22;25337;51.478;7.510;2024-01-30T10:12:11;11.60;99.90
39657;DHT22;25337;51.478;7.510;2024-01-30T10:14:40;11.60;99.90
39657;DHT22;25337;51.478;7.510;2024-01-30T10:17:11;11.70;99.90
39657;DHT22;25337;51.478;7.510;2024-01-30T10:19:40;11.80;99.90
39657;DHT22;25337;51.478;7.510;2024-01-30T10:22:07;12.10;99.90
39657;DHT22;25337;51.478;7.510;2024-01-30T10:24:35;12.10;99.90
39657;DHT22;25337;51.478;7.510;2024-01-30T10:27:01;12.10;99.90
39657;DHT22;25337;51.478;7.510;2024-01-30T10:29:28;12.10;99.90
39657;DHT22;25337;51.478;7.510;2024-01-30T10:32:01;12.00;99.90
39657;DHT22;25337;51.478;7.510;2024-01-30T10:34:27;12.00;99.90
39657;DHT22;25337;51.478;7.510;2024-01-30T10:37:11;12.00;99.90
39657;DHT22;25337;51.478;7.510;2024-01-30T10:39:44;12.20;99.90
39657;DHT22;25337;51.478;7.510;2024-01-30T10:42:15;12.30;99.90
39657;DHT22;25337;51.478;7.510;2024-01-30T10:45:06;12.60;99.90
39657;DHT22;25337;51.478;7.510;2024-01-30T10:47:40;13.30;99.90
39657;DHT22;25337;51.478;7.510;2024-01-30T10:50:07;14.10;99.90
39657;DHT22;25337;51.478;7.510;2024-01-30T10:52:33;14.60;99.90
39657;DHT22;25337;51.478;7.510;2024-01-30T10:54:59;14.50;99.90
39657;DHT22;25337;51.478;7.510;2024-01-30T10:57:25;14.00;99.90
39657;DHT22;25337;51.478;7.510;2024-01-30T10:59:56;13.60;99.90
39657;DHT22;25337;51.478;7.510;2024-01-30T11:02:22;13.30;99.90
39657;DHT22;25337;51.478;7.510;2024-01-30T11:04:49;13.10;99.90
39657;DHT22;25337;51.478;7.510;2024-01-30T11:07:18;13.30;99.90
39657;DHT22;25337;51.478;7.510;2024-01-30T11:09:50;13.30;99.90
39657;DHT22;25337;51.478;7.510;2024-01-30T11:12:16;13.40;99.90
39657;DHT22;25337;51.478;7.510;2024-01-30T11:14:46;13.60;99.90
39657;DHT22;25337;51.478;7.510;2024-01-30T11:17:12;13.90;99.90
39657;DHT22;25337;51.478;7.510;2024-01-30T11:19:37;14.30;99.90
39657;DHT22;25337;51.478;7.510;2024-01-30T11:22:03;14.70;99.90
39657;DHT22;25337;51.478;7.510;2024-01-30T11:24:40;14.70;99.90
39657;DHT22;25337;51.478;7.510;2024-01-30T11:27:09;14.80;99.90
39657;DHT22;25337;51.478;7.510;2024-01-30T11:29:35;14.90;99.90
39657;DHT22;25337;51.478;7.510;2024-01-30T11:32:02;15.10;99.90
39657;DHT22;25337;51.478;7.510;2024-01-30T11:34:28;15.50;99.90
39657;DHT22;25337;51.478;7.510;2024-01-30T11:36:59;15.90;99.90
39657;DHT22;25337;51.478;7.510;2024-01-30T11:39:27;16.00;99.90
39657;DHT22;25337;51.478;7.510;2024-01-30T11:41:55;15.90;99.90
39657;DHT22;25337;51.478;7.510;2024-01-30T11:44:21;15.70;99.90
39657;DHT22;25337;51.478;7.510;2024-01-30T11:46:48;15.70;99.90
39657;DHT22;25337;51.478;7.510;2024-01-30T11:49:14;15.50;99.90
39657;DHT22;25337;51.478;7.510;2024-01-30T11:51:40;15.60;99.90
39657;DHT22;25337;51.478;7.510;2024-01-30T11:54:07;15.80;99.90
39657;DHT22;25337;51.478;7.510;2024-01-30T11:56:33;15.70;99.90
39657;DHT22;25337;51.478;7.510;2024-01-30T11:58:58;15.10;99.90
39657;DHT22;25337;51.478;7.510;2024-01-30T12:01:26;14.80;99.90
39657;DHT22;25337;51.478;7.510;2024-01-30T12:03:52;14.70;99.90
39657;DHT22;25337;51.478;7.510;2024-01-30T12:06:18;14.60;99.90
39657;DHT22;25337;51.478;7.510;2024-01-30T12:08:58;14.30;99.90
39657;DHT22;25337;51.478;7.510;2024-01-30T12:11:24;13.90;99.90
39657;DHT22;25337;51.478;7.510;2024-01-30T12:13:51;13.60;99.90
39657;DHT22;25337;51.478;7.510;2024-01-30T12:16:17;13.50;99.90
39657;DHT22;25337;51.478;7.510;2024-01-30T12:18:42;13.40;99.90
39657;DHT22;25337;51.478;7.510;2024-01-30T12:21:08;13.40;99.90
39657;DHT22;25337;51.478;7.510;2024-01-30T12:23:35;13.40;99.90
39657;DHT22;25337;51.478;7.510;2024-01-30T12:26:01;13.40;99.90
39657;DHT22;25337;51.478;7.510;2024-01-30T12:28:29;13.50;99.90
39657;DHT22;25337;51.478;7.510;2024-01-30T12:31:02;13.50;99.90
39657;DHT22;25337;51.478;7.510;2024-01-30T12:33:29;13.50;99.90
39657;DHT22;25337;51.478;7.510;2024-01-30T12:35:56;13.40;99.90
39657;DHT22;25337;51.478;7.510;2024-01-30T12:38:23;13.20;99.90
39657;DHT22;25337;51.478;7.510;2024-01-30T12:40:49;13.00;99.90
39657;DHT22;25337;51.478;7.510;2024-01-30T12:43:15;12.90;99.90
39657;DHT22;25337;51.478;7.510;2024-01-30T12:45:42;12.90;99.90
39657;DHT22;25337;51.478;7.510;2024-01-30T12:48:08;12.80;99.90
39657;DHT22;25337;51.478;7.510;2024-01-30T12:50:34;12.80;99.90
39657;DHT22;25337;51.478;7.510;2024-01-30T12:52:59;12.70;99.90
39657;DHT22;25337;51.478;7.510;2024-01-30T12:55:25;12.70;99.90
39657;DHT22;25337;51.478;7.510;2024-01-30T12:57:54;12.70;99.90
39657;DHT22;25337;51.478;7.510;2024-01-30T13:00:20;12.70;99.90
39657;DHT22;25337;51.478;7.510;2024-01-30T13:02:46;12.60;99.90
39657;DHT22;25337;51.478;7.510;2024-01-30T13:05:12;12.60;99.90
39657;DHT22;25337;51.478;7.510;2024-01-30T13:07:38;12.60;99.90
39657;DHT22;25337;51.478;7.510;2024-01-30T13:10:04;12.50;99.90
39657;DHT22;25337;51.478;7.510;2024-01-30T13:12:30;12.40;99.90
39657;DHT22;25337;51.478;7.510;2024-01-30T13:14:57;12.40;99.90
39657;DHT22;25337;51.478;7.510;2024-01-30T13:17:23;12.30;99.90
39657;DHT22;25337;51.478;7.510;2024-01-30T13:19:49;12.30;99.90
39657;DHT22;25337;51.478;7.510;2024-01-30T13:22:15;12.30;99.90
39657;DHT22;25337;51.478;7.510;2024-01-30T13:24:41;12.30;99.90
39657;DHT22;25337;51.478;7.510;2024-01-30T13:27:07;12.40;99.90
39657;DHT22;25337;51.478;7.510;2024-01-30T13:29:33;12.40;99.90
39657;DHT22;25337;51.478;7.510;2024-01-30T13:31:58;12.40;99.90
39657;DHT22;25337;51.478;7.510;2024-01-30T13:34:24;12.40;99.90
39657;DHT22;25337;51.478;7.510;2024-01-30T13:36:50;12.30;99.90
39657;DHT22;25337;51.478;7.510;2024-01-30T13:39:16;12.30;99.90
39657;DHT22;25337;51.478;7.510;2024-01-30T13:41:42;12.30;99.90
39657;DHT22;25337;51.478;7.510;2024-01-30T13:44:08;12.30;99.90
39657;DHT22;25337;51.478;7.510;2024-01-30T13:46:35;12.30;99.90
39657;DHT22;25337;51.478;7.510;2024-01-30T13:49:01;12.30;99.90
39657;DHT22;25337;51.478;7.510;2024-01-30T13:51:27;12.30;99.90
39657;DHT22;25337;51.478;7.510;2024-01-30T13:53:53;12.20;99.90
39657;DHT22;25337;51.478;7.510;2024-01-30T13:56:19;12.20;99.90
39657;DHT22;25337;51.478;7.510;2024-01-30T13:58:47;12.10;99.90
39657;DHT22;25337;51.478;7.510;2024-01-30T14:01:13;12.10;99.90
39657;DHT22;25337;51.478;7.510;2024-01-30T14:03:38;12.10;99.90
39657;DHT22;25337;51.478;7.510;2024-01-30T14:06:04;12.10;99.90
39657;DHT22;25337;51.478;7.510;2024-01-30T14:08:30;12.00;99.90
39657;DHT22;25337;51.478;7.510;2024-01-30T14:10:55;11.90;99.90
39657;DHT22;25337;51.478;7.510;2024-01-30T14:13:21;11.90;99.90
39657;DHT22;25337;51.478;7.510;2024-01-30T14:15:48;11.90;99.90
39657;DHT22;25337;51.478;7.510;2024-01-30T14:18:15;11.80;99.90
39657;DHT22;25337;51.478;7.510;2024-01-30T14:20:41;11.80;99.90
39657;DHT22;25337;51.478;7.510;2024-01-30T14:23:06;11.80;99.90
39657;DHT22;25337;51.478;7.510;2024-01-30T14:25:32;11.80;99.90
39657;DHT22;25337;51.478;7.510;2024-01-30T14:27:58;11.80;99.90
39657;DHT22;25337;51.478;7.510;2024-01-30T14:30:23;11.80;99.90
39657;DHT22;25337;51.478;7.510;2024-01-30T14:32:49;11.80;99.90
39657;DHT22;25337;51.478;7.510;2024-01-30T14:35:15;11.80;99.90
39657;DHT22;25337;51.478;7.510;2024-01-30T14:37:41;11.80;99.90
39657;DHT22;25337;51.478;7.510;2024-01-30T14:40:06;11.90;99.90
39657;DHT22;25337;51.478;7.510;2024-01-30T14:42:33;11.90;99.90
39657;DHT22;25337;51.478;7.510;2024-01-30T14:44:58;11.90;99.90
39657;DHT22;25337;51.478;7.510;2024-01-30T14:47:24;11.90;99.90
39657;DHT22;25337;51.478;7.510;2024-01-30T14:49:51;11.90;99.90
39657;DHT22;25337;51.478;7.510;2024-01-30T14:52:17;12.00;99.90
39657;DHT22;25337;51.478;7.510;2024-01-30T14:54:43;12.00;99.90
39657;DHT22;25337;51.478;7.510;2024-01-30T14:57:09;12.00;99.90
39657;DHT22;25337;51.478;7.510;2024-01-30T14:59:35;12.00;99.90
39657;DHT22;25337;51.478;7.510;2024-01-30T15:02:00;12.00;99.90
39657;DHT22;25337;51.478;7.510;2024-01-30T15:04:26;11.90;99.90
39657;DHT22;25337;51.478;7.510;2024-01-30T15:06:52;11.90;99.90
39657;DHT22;25337;51.478;7.510;2024-01-30T15:09:18;11.90;99.90
39657;DHT22;25337;51.478;7.510;2024-01-30T15:11:44;11.90;99.90
39657;DHT22;25337;51.478;7.510;2024-01-30T15:14:10;11.90;99.90
39657;DHT22;25337;51.478;7.510;2024-01-30T15:16:36;11.80;99.90
39657;DHT22;25337;51.478;7.510;2024-01-30T15:19:02;11.80;99.90
39657;DHT22;25337;51.478;7.510;2024-01-30T15:21:30;11.80;99.90
39657;DHT22;25337;51.478;7.510;2024-01-30T15:23:56;11.80;99.90
39657;DHT22;25337;51.478;7.510;2024-01-30T15:26:21;11.80;99.90
39657;DHT22;25337;51.478;7.510;2024-01-30T15:28:47;11.80;99.90
39657;DHT22;25337;51.478;7.510;2024-01-30T15:31:13;11.80;99.90
39657;DHT22;25337;51.478;7.510;2024-01-30T15:33:38;11.80;99.90